createdAt,value
2024-03-12T00:00:13.595Z,0.63
2024-03-12T00:01:13.758Z,0.63
2024-03-12T00:02:13.606Z,0.62
2024-03-12T00:03:13.613Z,0.62
2024-03-12T00:04:13.679Z,0.62
2024-03-12T00:05:13.645Z,0.61
2024-03-12T00:06:13.632Z,0.61
2024-03-12T00:07:13.667Z,0.61
2024-03-12T00:08:13.634Z,0.60
2024-03-12T00:09:13.628Z,0.62
2024-03-12T00:10:13.667Z,0.61
2024-03-12T00:11:13.647Z,0.61
2024-03-12T00:12:13.625Z,0.60
2024-03-12T00:13:13.666Z,0.61
2024-03-12T00:14:13.634Z,0.61
2024-03-12T00:15:13.625Z,0.59
2024-03-12T00:16:13.658Z,0.61
2024-03-12T00:17:13.662Z,0.60
2024-03-12T00:18:13.663Z,0.60
2024-03-12T00:19:13.737Z,0.58
2024-03-12T00:20:13.633Z,0.59
2024-03-12T00:21:13.641Z,0.60
2024-03-12T00:22:13.714Z,0.60
2024-03-12T00:23:13.650Z,0.59
2024-03-12T00:24:13.626Z,0.59
2024-03-12T00:25:13.621Z,0.58
2024-03-12T00:26:13.620Z,0.58
2024-03-12T00:27:13.625Z,0.58
2024-03-12T00:28:13.694Z,0.57
2024-03-12T00:29:13.659Z,0.57
2024-03-12T00:30:13.619Z,0.57
2024-03-12T00:31:13.644Z,0.57
2024-03-12T00:32:13.629Z,0.57
2024-03-12T00:33:13.877Z,0.55
2024-03-12T00:34:13.644Z,0.57
2024-03-12T00:35:13.608Z,0.57
2024-03-12T00:36:13.610Z,0.56
2024-03-12T00:37:13.655Z,0.56
2024-03-12T00:38:13.611Z,0.56
2024-03-12T00:39:13.613Z,0.55
2024-03-12T00:40:13.712Z,0.56
2024-03-12T00:41:13.603Z,0.57
2024-03-12T00:42:13.621Z,0.57
2024-03-12T00:43:13.758Z,0.55
2024-03-12T00:44:13.722Z,0.56
2024-03-12T00:45:13.713Z,0.56
2024-03-12T00:46:13.865Z,0.56
2024-03-12T00:47:13.777Z,0.56
2024-03-12T00:48:13.906Z,0.56
2024-03-12T00:49:13.881Z,0.57
2024-03-12T00:50:13.899Z,0.56
2024-03-12T00:51:13.885Z,0.56
2024-03-12T00:52:13.866Z,0.55
2024-03-12T00:53:13.873Z,0.56
2024-03-12T00:54:13.870Z,0.56
2024-03-12T00:55:13.880Z,0.56
2024-03-12T00:56:13.874Z,0.56
2024-03-12T00:57:13.856Z,0.57
2024-03-12T00:58:14.015Z,0.56
2024-03-12T00:59:13.857Z,0.56
2024-03-12T01:00:13.840Z,0.57
2024-03-12T01:01:13.895Z,0.57
2024-03-12T01:02:13.851Z,0.57
2024-03-12T01:03:13.838Z,0.57
2024-03-12T01:04:13.875Z,0.57
2024-03-12T01:05:13.839Z,0.57
2024-03-12T01:06:13.824Z,0.56
2024-03-12T01:07:13.836Z,0.57
2024-03-12T01:08:13.937Z,0.58
2024-03-12T01:09:13.873Z,0.58
2024-03-12T01:10:13.952Z,0.58
2024-03-12T01:11:13.990Z,0.58
2024-03-12T01:12:13.989Z,0.58
2024-03-12T01:13:14.059Z,0.58
2024-03-12T01:14:14.063Z,0.59
2024-03-12T01:15:14.074Z,0.59
2024-03-12T01:16:14.222Z,0.58
2024-03-12T01:17:14.143Z,0.59
2024-03-12T01:18:14.207Z,0.59
2024-03-12T01:19:14.213Z,0.60
2024-03-12T01:20:14.254Z,0.59
2024-03-12T01:21:14.305Z,0.59
2024-03-12T01:22:14.319Z,0.59
2024-03-12T01:23:14.329Z,0.59
2024-03-12T01:24:14.383Z,0.59
2024-03-12T01:25:14.434Z,0.61
2024-03-12T01:26:14.418Z,0.60
2024-03-12T01:27:14.459Z,0.59
2024-03-12T01:28:14.517Z,0.60
2024-03-12T01:29:14.535Z,0.60
2024-03-12T01:30:14.545Z,0.60
2024-03-12T01:31:14.570Z,0.60
2024-03-12T01:32:14.530Z,0.61
2024-03-12T01:33:14.564Z,0.61
2024-03-12T01:34:14.646Z,0.61
2024-03-12T01:35:14.546Z,0.63
2024-03-12T01:36:14.562Z,0.61
2024-03-12T01:37:14.624Z,0.61
2024-03-12T01:38:14.551Z,0.61
2024-03-12T01:39:14.548Z,0.62
2024-03-12T01:40:14.577Z,0.62
2024-03-12T01:41:14.579Z,0.62
2024-03-12T01:42:14.578Z,0.63
2024-03-12T01:43:14.836Z,0.63
2024-03-12T01:44:14.582Z,0.63
2024-03-12T01:45:14.579Z,0.63
2024-03-12T01:46:14.575Z,0.63
2024-03-12T01:47:14.555Z,0.63
2024-03-12T01:48:14.571Z,0.63
2024-03-12T01:49:14.564Z,0.63
2024-03-12T01:50:14.573Z,0.64
2024-03-12T01:51:14.551Z,0.64
2024-03-12T01:52:14.563Z,0.64
2024-03-12T01:53:14.587Z,0.65
2024-03-12T01:54:14.562Z,0.64
2024-03-12T01:55:14.561Z,0.64
2024-03-12T01:56:14.568Z,0.67
2024-03-12T01:57:14.546Z,0.66
2024-03-12T01:58:14.620Z,0.67
2024-03-12T01:59:14.553Z,0.66
2024-03-12T02:00:14.752Z,0.66
2024-03-12T02:01:14.560Z,0.68
2024-03-12T02:02:14.540Z,0.69
2024-03-12T02:03:14.547Z,0.68
2024-03-12T02:04:14.534Z,0.68
2024-03-12T02:05:14.551Z,0.68
2024-03-12T02:06:14.552Z,0.69
2024-03-12T02:07:14.633Z,0.70
2024-03-12T02:08:14.599Z,0.68
2024-03-12T02:09:14.646Z,0.69
2024-03-12T02:10:14.668Z,0.70
2024-03-12T02:11:14.718Z,0.71
2024-03-12T02:12:14.704Z,0.71
2024-03-12T02:13:14.797Z,0.71
2024-03-12T02:14:14.756Z,0.69
2024-03-12T02:15:14.776Z,0.71
2024-03-12T02:16:14.869Z,0.71
2024-03-12T02:17:14.837Z,0.70
2024-03-12T02:18:14.922Z,0.71
2024-03-12T02:19:14.882Z,0.71
2024-03-12T02:20:14.913Z,0.71
2024-03-12T02:21:14.941Z,0.70
2024-03-12T02:22:14.975Z,0.70
2024-03-12T02:23:15.026Z,0.69
2024-03-12T02:24:15.045Z,0.71
2024-03-12T02:25:15.094Z,0.70
2024-03-12T02:26:15.127Z,0.71
2024-03-12T02:27:15.167Z,0.72
2024-03-12T02:28:15.234Z,0.72
2024-03-12T02:29:15.254Z,0.72
2024-03-12T02:30:15.331Z,0.72
2024-03-12T02:31:15.377Z,0.71
2024-03-12T02:32:15.333Z,0.73
2024-03-12T02:33:15.474Z,0.72
2024-03-12T02:34:15.396Z,0.72
2024-03-12T02:35:15.419Z,0.73
2024-03-12T02:36:15.478Z,0.72
2024-03-12T02:37:15.494Z,0.72
2024-03-12T02:38:15.537Z,0.72
2024-03-12T02:39:15.723Z,0.72
2024-03-12T02:40:16.781Z,0.72
2024-03-12T02:41:15.662Z,0.73
2024-03-12T02:42:15.679Z,0.72
2024-03-12T02:43:15.764Z,0.72
2024-03-12T02:44:15.765Z,0.73
2024-03-12T02:45:16.901Z,0.73
2024-03-12T02:46:15.923Z,0.72
2024-03-12T02:47:15.895Z,0.74
2024-03-12T02:48:15.936Z,0.73
2024-03-12T02:49:15.982Z,0.72
2024-03-12T02:50:16.028Z,0.75
2024-03-12T02:51:16.041Z,0.75
2024-03-12T02:52:16.087Z,0.73
2024-03-12T02:53:16.154Z,0.74
2024-03-12T02:54:16.177Z,0.75
2024-03-12T02:55:16.302Z,0.74
2024-03-12T02:56:16.259Z,0.74
2024-03-12T02:57:16.337Z,0.75
2024-03-12T02:58:16.380Z,0.73
2024-03-12T02:59:16.385Z,0.75
2024-03-12T03:00:16.717Z,0.75
2024-03-12T03:01:16.530Z,0.75
2024-03-12T03:02:16.502Z,0.73
2024-03-12T03:03:16.547Z,0.74
2024-03-12T03:04:16.594Z,0.75
2024-03-12T03:05:16.682Z,0.75
2024-03-12T03:06:16.667Z,0.73
2024-03-12T03:07:16.707Z,0.75
2024-03-12T03:08:16.750Z,0.74
2024-03-12T03:09:16.770Z,0.75
2024-03-12T03:10:16.888Z,0.76
2024-03-12T03:11:16.873Z,0.75
2024-03-12T03:12:16.880Z,0.76
2024-03-12T03:13:16.940Z,0.76
2024-03-12T03:14:16.958Z,0.75
2024-03-12T03:15:17.000Z,0.74
2024-03-12T03:16:17.021Z,0.76
2024-03-12T03:17:17.063Z,0.74
2024-03-12T03:18:17.192Z,0.76
2024-03-12T03:19:17.138Z,0.74
2024-03-12T03:20:17.249Z,0.75
2024-03-12T03:21:17.199Z,0.75
2024-03-12T03:22:17.310Z,0.70
2024-03-12T03:23:17.229Z,0.66
2024-03-12T03:24:17.247Z,0.60
2024-03-12T03:25:17.337Z,0.56
2024-03-12T03:26:17.255Z,0.53
2024-03-12T03:27:17.298Z,0.50
2024-03-12T03:28:17.302Z,0.50
2024-03-12T03:29:17.346Z,0.50
2024-03-12T03:30:17.384Z,0.50
2024-03-12T03:31:17.475Z,0.50
2024-03-12T03:32:17.519Z,0.49
2024-03-12T03:33:17.601Z,0.50
2024-03-12T03:34:17.782Z,0.50
2024-03-12T03:35:17.721Z,0.50
2024-03-12T03:36:17.804Z,0.50
2024-03-12T03:37:17.885Z,0.51
2024-03-12T03:38:17.935Z,0.51
2024-03-12T03:39:18.023Z,0.50
2024-03-12T03:40:18.090Z,0.50
2024-03-12T03:41:18.098Z,0.50
2024-03-12T03:42:18.113Z,0.50
2024-03-12T03:43:18.140Z,0.50
2024-03-12T03:44:18.175Z,0.50
2024-03-12T03:45:18.184Z,0.50
2024-03-12T03:46:18.190Z,0.50
2024-03-12T03:47:18.242Z,0.50
2024-03-12T03:48:18.253Z,0.50
2024-03-12T03:49:18.287Z,0.50
2024-03-12T03:50:18.320Z,0.50
2024-03-12T03:51:18.384Z,0.50
2024-03-12T03:52:18.393Z,0.50
2024-03-12T03:53:18.429Z,0.51
2024-03-12T03:54:18.482Z,0.49
2024-03-12T03:55:18.595Z,0.50
2024-03-12T03:56:18.553Z,0.50
2024-03-12T03:57:18.601Z,0.50
2024-03-12T03:58:18.645Z,0.50
2024-03-12T03:59:18.708Z,0.51
2024-03-12T04:00:18.743Z,0.50
2024-03-12T04:01:18.846Z,0.50
2024-03-12T04:02:18.849Z,0.50
2024-03-12T04:03:18.918Z,0.50
2024-03-12T04:04:18.988Z,0.51
2024-03-12T04:05:19.026Z,0.50
2024-03-12T04:06:19.095Z,0.51
2024-03-12T04:07:19.171Z,0.51
2024-03-12T04:08:19.257Z,0.50
2024-03-12T04:09:19.303Z,0.51
2024-03-12T04:10:19.583Z,0.50
2024-03-12T04:11:19.500Z,0.50
2024-03-12T04:12:19.552Z,0.51
2024-03-12T04:13:19.636Z,0.50
2024-03-12T04:14:19.749Z,0.50
2024-03-12T04:15:19.733Z,0.50
2024-03-12T04:16:19.819Z,0.51
2024-03-12T04:17:19.884Z,0.51
2024-03-12T04:18:20.139Z,0.52
2024-03-12T04:19:20.090Z,0.52
2024-03-12T04:20:20.130Z,0.51
2024-03-12T04:21:20.199Z,0.51
2024-03-12T04:22:20.292Z,0.52
2024-03-12T04:23:20.367Z,0.53
2024-03-12T04:24:20.451Z,0.52
2024-03-12T04:25:20.529Z,0.54
2024-03-12T04:26:20.623Z,0.53
2024-03-12T04:27:20.736Z,0.53
2024-03-12T04:28:20.891Z,0.54
2024-03-12T04:29:20.882Z,0.54
2024-03-12T04:30:20.957Z,0.57
2024-03-12T04:31:21.035Z,0.56
2024-03-12T04:32:21.136Z,0.56
2024-03-12T04:33:21.237Z,0.55
2024-03-12T04:34:21.290Z,0.56
2024-03-12T04:35:28.584Z,0.50
2024-03-12T04:36:28.626Z,0.50
2024-03-12T04:37:28.602Z,0.50
2024-03-12T04:38:28.601Z,0.50
2024-03-12T04:39:28.644Z,0.50
2024-03-12T04:40:28.684Z,0.51
2024-03-12T04:41:28.616Z,0.52
2024-03-12T04:42:28.700Z,0.52
2024-03-12T04:43:28.640Z,0.53
2024-03-12T04:44:28.656Z,0.52
2024-03-12T04:45:28.684Z,0.54
2024-03-12T04:46:28.662Z,0.54
2024-03-12T04:47:28.739Z,0.55
2024-03-12T04:48:28.790Z,0.56
2024-03-12T04:49:28.699Z,0.57
2024-03-12T04:50:28.698Z,0.57
2024-03-12T04:51:28.718Z,0.58
2024-03-12T04:52:28.723Z,0.59
2024-03-12T04:53:28.725Z,0.59
2024-03-12T04:54:28.764Z,0.60
2024-03-12T04:55:28.735Z,0.59
2024-03-12T04:56:28.738Z,0.60
2024-03-12T04:57:28.766Z,0.60
2024-03-12T04:58:28.749Z,0.60
2024-03-12T04:59:28.778Z,0.61
2024-03-12T05:00:32.392Z,0.59
2024-03-12T05:01:28.855Z,0.58
2024-03-12T05:02:28.787Z,0.60
2024-03-12T05:03:28.812Z,0.60
2024-03-12T05:04:28.823Z,0.59
2024-03-12T05:05:28.795Z,0.61
2024-03-12T05:06:28.797Z,0.61
2024-03-12T05:07:28.788Z,0.61
2024-03-12T05:08:28.840Z,0.60
2024-03-12T05:09:28.824Z,0.58
2024-03-12T05:10:28.804Z,0.57
2024-03-12T05:11:28.828Z,0.57
2024-03-12T05:12:28.831Z,0.54
2024-03-12T05:13:28.826Z,0.54
2024-03-12T05:14:28.838Z,0.54
2024-03-12T05:15:28.934Z,0.52
2024-03-12T05:16:28.869Z,0.51
2024-03-12T05:17:28.870Z,0.51
2024-03-12T05:18:28.899Z,0.49
2024-03-12T05:19:28.866Z,0.50
2024-03-12T05:20:28.923Z,0.50
2024-03-12T05:21:31.471Z,0.49
2024-03-12T05:22:28.891Z,0.47
2024-03-12T05:23:28.890Z,0.46
2024-03-12T05:24:28.921Z,0.50
2024-03-12T05:25:28.898Z,0.52
2024-03-12T05:26:28.906Z,0.51
2024-03-12T05:27:28.936Z,0.51
2024-03-12T05:28:28.931Z,0.50
2024-03-12T05:29:28.925Z,0.51
2024-03-12T05:30:28.945Z,0.50
2024-03-12T05:31:28.936Z,0.51
2024-03-12T05:32:28.952Z,0.52
2024-03-12T05:33:28.961Z,0.51
2024-03-12T05:34:28.966Z,0.52
2024-03-12T05:35:28.960Z,0.52
2024-03-12T05:36:28.966Z,0.52
2024-03-12T05:37:28.981Z,0.52
2024-03-12T05:38:28.960Z,0.52
2024-03-12T05:39:29.032Z,0.52
2024-03-12T05:40:28.968Z,0.53
2024-03-12T05:41:28.974Z,0.53
2024-03-12T05:42:28.993Z,0.54
2024-03-12T05:43:28.987Z,0.54
2024-03-12T05:44:28.987Z,0.55
2024-03-12T05:45:29.083Z,0.55
2024-03-12T05:46:29.091Z,0.55
2024-03-12T05:47:29.029Z,0.56
2024-03-12T05:48:29.026Z,0.55
2024-03-12T05:49:29.038Z,0.55
2024-03-12T05:50:29.039Z,0.56
2024-03-12T05:51:29.096Z,0.57
2024-03-12T05:52:29.176Z,0.55
2024-03-12T05:53:29.055Z,0.56
2024-03-12T05:54:29.080Z,0.58
2024-03-12T05:55:29.062Z,0.60
2024-03-12T05:56:29.068Z,0.64
2024-03-12T05:57:29.094Z,0.68
2024-03-12T05:58:29.079Z,0.71
2024-03-12T05:59:29.107Z,0.73
2024-03-12T06:00:29.223Z,0.77
2024-03-12T06:01:30.173Z,0.78
2024-03-12T06:02:29.148Z,0.77
2024-03-12T06:03:29.150Z,0.77
2024-03-12T06:04:29.142Z,0.78
2024-03-12T06:05:29.161Z,0.78
2024-03-12T06:06:29.200Z,0.79
2024-03-12T06:07:29.208Z,0.80
2024-03-12T06:08:29.217Z,0.78
2024-03-12T06:09:29.196Z,0.77
2024-03-12T06:10:29.186Z,0.74
2024-03-12T06:11:29.261Z,0.74
2024-03-12T06:12:29.202Z,0.70
2024-03-12T06:13:29.177Z,0.69
2024-03-12T06:14:29.195Z,0.64
2024-03-12T06:15:29.214Z,0.63
2024-03-12T06:16:29.188Z,0.61
2024-03-12T06:17:29.191Z,0.63
2024-03-12T06:18:29.341Z,0.61
2024-03-12T06:19:29.217Z,0.59
2024-03-12T06:20:29.195Z,0.58
2024-03-12T06:21:29.235Z,0.58
2024-03-12T06:22:29.209Z,0.56
2024-03-12T06:23:29.215Z,0.57
2024-03-12T06:24:29.282Z,0.57
2024-03-12T06:25:29.252Z,0.56
2024-03-12T06:26:29.253Z,0.55
2024-03-12T06:27:29.284Z,0.54
2024-03-12T06:28:29.320Z,0.55
2024-03-12T06:29:29.253Z,0.55
2024-03-12T06:30:29.322Z,0.57
2024-03-12T06:31:29.271Z,0.56
2024-03-12T06:32:29.315Z,0.58
2024-03-12T06:33:29.331Z,0.62
2024-03-12T06:34:29.342Z,0.69
2024-03-12T06:35:29.343Z,0.70
2024-03-12T06:36:29.355Z,0.73
2024-03-12T06:37:29.328Z,0.82
2024-03-12T06:38:29.327Z,1.02
2024-03-12T06:39:29.377Z,1.48
2024-03-12T06:40:29.355Z,1.75
2024-03-12T06:41:29.342Z,2.07
2024-03-12T06:42:29.359Z,2.36
2024-03-12T06:43:29.333Z,2.77
2024-03-12T06:44:29.323Z,3.10
2024-03-12T06:45:29.416Z,3.11
2024-03-12T06:46:29.326Z,3.22
2024-03-12T06:47:29.331Z,3.56
2024-03-12T06:48:29.324Z,4.17
2024-03-12T06:49:29.306Z,5.36
2024-03-12T06:50:29.316Z,5.96
2024-03-12T06:51:29.343Z,6.51
2024-03-12T06:52:29.296Z,7.11
2024-03-12T06:53:29.292Z,7.42
2024-03-12T06:54:29.355Z,7.79
2024-03-12T06:55:29.365Z,8.17
2024-03-12T06:56:29.324Z,9.58
2024-03-12T06:57:29.326Z,12.02
2024-03-12T06:58:29.383Z,12.80
2024-03-12T06:59:29.502Z,13.68
2024-03-12T07:00:29.329Z,15.08
2024-03-12T07:01:29.343Z,16.54
2024-03-12T07:02:29.297Z,19.37
2024-03-12T07:03:29.345Z,21.13
2024-03-12T07:04:29.313Z,22.71
2024-03-12T07:05:29.276Z,25.35
2024-03-12T07:06:29.300Z,26.89
2024-03-12T07:07:29.258Z,29.11
2024-03-12T07:08:29.259Z,34.71
2024-03-12T07:09:29.252Z,39.24
2024-03-12T07:10:29.275Z,46.58
2024-03-12T07:11:29.294Z,51.50
2024-03-12T07:12:29.281Z,59.46
2024-03-12T07:13:29.279Z,65.20
2024-03-12T07:14:29.362Z,70.89
2024-03-12T07:15:29.501Z,74.94
2024-03-12T07:16:29.478Z,82.61
2024-03-12T07:17:31.629Z,89.66
2024-03-12T07:18:29.615Z,93.10
2024-03-12T07:19:29.648Z,98.89
2024-03-12T07:20:29.687Z,103.62
2024-03-12T07:21:29.702Z,103.88
2024-03-12T07:22:29.670Z,105.04
2024-03-12T07:23:29.659Z,109.19
2024-03-12T07:24:29.686Z,115.94
2024-03-12T07:25:29.655Z,127.19
2024-03-12T07:26:29.640Z,132.57
2024-03-12T07:27:29.684Z,130.82
2024-03-12T07:28:29.670Z,135.15
2024-03-12T07:29:29.616Z,132.30
2024-03-12T07:30:29.656Z,133.24
2024-03-12T07:31:29.587Z,136.48
2024-03-12T07:32:29.677Z,135.73
2024-03-12T07:33:29.701Z,144.46
2024-03-12T07:34:29.770Z,146.94
2024-03-12T07:35:29.738Z,145.17
2024-03-12T07:36:29.788Z,148.13
2024-03-12T07:37:29.788Z,149.39
2024-03-12T07:38:29.834Z,144.09
2024-03-12T07:39:29.891Z,135.92
2024-03-12T07:40:29.908Z,129.72
2024-03-12T07:41:29.884Z,126.05
2024-03-12T07:42:29.909Z,116.58
2024-03-12T07:43:29.859Z,111.32
2024-03-12T07:44:29.983Z,105.89
2024-03-12T07:45:29.886Z,100.17
2024-03-12T07:46:29.839Z,93.60
2024-03-12T07:47:29.911Z,86.90
2024-03-12T07:48:29.842Z,78.61
2024-03-12T07:49:29.820Z,73.99
2024-03-12T07:50:29.978Z,70.43
2024-03-12T07:51:29.844Z,65.61
2024-03-12T07:52:29.785Z,59.87
2024-03-12T07:53:29.772Z,58.75
2024-03-12T07:54:29.777Z,56.35
2024-03-12T07:55:29.750Z,54.47
2024-03-12T07:56:29.766Z,51.45
2024-03-12T07:57:29.755Z,49.82
2024-03-12T07:58:29.746Z,46.30
2024-03-12T07:59:29.792Z,43.26
2024-03-12T08:00:29.767Z,41.39
2024-03-12T08:01:29.714Z,38.92
2024-03-12T08:02:29.713Z,36.93
2024-03-12T08:03:29.970Z,35.25
2024-03-12T08:04:29.824Z,32.11
2024-03-12T08:05:33.018Z,31.48
2024-03-12T08:06:30.970Z,30.00
2024-03-12T08:07:29.866Z,27.82
2024-03-12T08:08:29.849Z,27.18
2024-03-12T08:09:30.018Z,25.76
2024-03-12T08:10:29.838Z,23.97
2024-03-12T08:11:29.877Z,23.08
2024-03-12T08:12:29.859Z,21.81
2024-03-12T08:13:29.864Z,21.16
2024-03-12T08:14:29.830Z,19.70
2024-03-12T08:15:29.895Z,18.81
2024-03-12T08:16:29.941Z,17.16
2024-03-12T08:17:30.279Z,16.33
2024-03-12T08:18:30.122Z,15.92
2024-03-12T08:19:30.116Z,14.73
2024-03-12T08:20:30.158Z,14.22
2024-03-12T08:21:30.306Z,13.43
2024-03-12T08:22:30.291Z,12.92
2024-03-12T08:23:30.379Z,10.99
2024-03-12T08:24:30.427Z,9.60
2024-03-12T08:25:33.226Z,8.12
2024-03-12T08:26:31.483Z,7.17
2024-03-12T08:27:30.471Z,6.14
2024-03-12T08:28:30.435Z,5.33
2024-03-12T08:29:30.436Z,4.63
2024-03-12T08:30:33.397Z,4.05
2024-03-12T08:31:35.671Z,3.55
2024-03-12T08:32:31.779Z,3.23
2024-03-12T08:33:30.475Z,2.88
2024-03-12T08:34:30.431Z,2.61
2024-03-12T08:35:30.405Z,2.46
2024-03-12T08:36:30.472Z,2.36
2024-03-12T08:37:30.409Z,2.31
2024-03-12T08:38:30.420Z,2.27
2024-03-12T08:39:30.416Z,2.30
2024-03-12T08:40:30.477Z,2.15
2024-03-12T08:41:30.406Z,1.84
2024-03-12T08:42:30.485Z,1.56
2024-03-12T08:43:30.463Z,1.30
2024-03-12T08:44:30.466Z,1.11
2024-03-12T08:45:30.442Z,1.00
2024-03-12T08:46:30.422Z,0.89
2024-03-12T08:47:30.453Z,0.79
2024-03-12T08:48:30.479Z,0.72
2024-03-12T08:49:30.429Z,0.66
2024-03-12T08:50:30.476Z,0.60
2024-03-12T08:51:30.536Z,0.53
2024-03-12T08:52:30.441Z,0.50
2024-03-12T08:53:30.418Z,0.50
2024-03-12T08:54:30.509Z,0.50
2024-03-12T08:55:30.506Z,0.50
2024-03-12T08:56:30.445Z,0.50
2024-03-12T08:57:30.470Z,0.49
2024-03-12T08:58:30.447Z,0.51
2024-03-12T08:59:30.465Z,0.50
2024-03-12T09:00:30.683Z,0.50
2024-03-12T09:01:30.545Z,0.50
2024-03-12T09:02:30.483Z,0.50
2024-03-12T09:03:30.570Z,0.50
2024-03-12T09:04:30.565Z,0.50
2024-03-12T09:05:30.532Z,0.50
2024-03-12T09:06:30.613Z,0.50
2024-03-12T09:07:30.605Z,0.50
2024-03-12T09:08:30.657Z,0.51
2024-03-12T09:09:30.747Z,0.52
2024-03-12T09:10:30.760Z,0.51
2024-03-12T09:11:30.868Z,0.51
2024-03-12T09:12:30.875Z,0.51
2024-03-12T09:13:30.741Z,0.52
2024-03-12T09:14:30.747Z,0.52
2024-03-12T09:15:30.769Z,0.51
2024-03-12T09:16:30.762Z,0.51
2024-03-12T09:17:30.773Z,0.53
2024-03-12T09:18:30.806Z,0.51
2024-03-12T09:19:30.772Z,0.50
2024-03-12T09:20:30.810Z,0.53
2024-03-12T09:21:30.814Z,0.52
2024-03-12T09:22:30.801Z,0.50
2024-03-12T09:23:31.594Z,0.52
2024-03-12T09:24:30.850Z,0.54
2024-03-12T09:25:30.792Z,0.59
2024-03-12T09:26:31.108Z,0.63
2024-03-12T09:27:30.829Z,0.66
2024-03-12T09:28:30.798Z,0.71
2024-03-12T09:29:30.827Z,0.76
2024-03-12T09:30:30.878Z,0.76
2024-03-12T09:31:30.817Z,0.77
2024-03-12T09:32:30.831Z,0.79
2024-03-12T09:33:30.814Z,0.83
2024-03-12T09:34:30.797Z,0.84
2024-03-12T09:35:30.802Z,0.83
2024-03-12T09:36:30.818Z,0.80
2024-03-12T09:37:30.793Z,0.79
2024-03-12T09:38:30.868Z,0.75
2024-03-12T09:39:30.965Z,0.73
2024-03-12T09:40:31.045Z,0.69
2024-03-12T09:41:30.962Z,0.68
2024-03-12T09:42:31.014Z,0.65
2024-03-12T09:43:30.961Z,0.68
2024-03-12T09:44:30.962Z,0.68
2024-03-12T09:45:31.071Z,0.67
2024-03-12T09:46:30.933Z,0.64
2024-03-12T09:47:30.949Z,0.65
2024-03-12T09:48:30.969Z,0.63
2024-03-12T09:49:30.965Z,0.64
2024-03-12T09:50:30.939Z,0.64
2024-03-12T09:51:30.947Z,0.63
2024-03-12T09:52:30.958Z,0.70
2024-03-12T09:53:30.933Z,0.77
2024-03-12T09:54:30.949Z,0.85
2024-03-12T09:55:30.918Z,0.95
2024-03-12T09:56:30.898Z,1.07
2024-03-12T09:57:30.933Z,1.22
2024-03-12T09:58:30.898Z,1.39
2024-03-12T09:59:31.948Z,1.63
2024-03-12T10:00:30.949Z,1.90
2024-03-12T10:01:30.853Z,2.17
2024-03-12T10:02:30.888Z,2.39
2024-03-12T10:03:30.920Z,2.40
2024-03-12T10:04:30.841Z,2.48
2024-03-12T10:05:30.824Z,2.68
2024-03-12T10:06:30.941Z,3.15
2024-03-12T10:07:30.810Z,2.44
2024-03-12T10:08:30.779Z,2.64
2024-03-12T10:09:30.813Z,3.06
2024-03-12T10:10:30.745Z,4.97
2024-03-12T10:11:30.736Z,8.41
2024-03-12T10:12:30.712Z,9.11
2024-03-12T10:13:30.725Z,9.81
2024-03-12T10:14:30.677Z,10.27
2024-03-12T10:15:30.682Z,10.30
2024-03-12T10:16:30.673Z,10.44
2024-03-12T10:17:30.629Z,10.85
2024-03-12T10:18:30.673Z,11.46
2024-03-12T10:19:30.598Z,12.21
2024-03-12T10:20:30.584Z,12.41
2024-03-12T10:21:30.638Z,15.06
2024-03-12T10:22:30.544Z,26.38
2024-03-12T10:23:30.525Z,25.12
2024-03-12T10:24:30.633Z,23.22
2024-03-12T10:25:30.628Z,22.72
2024-03-12T10:26:30.691Z,21.78
2024-03-12T10:27:30.773Z,21.29
2024-03-12T10:28:30.812Z,19.98
2024-03-12T10:29:30.859Z,18.82
2024-03-12T10:30:30.890Z,17.89
2024-03-12T10:31:30.922Z,17.43
2024-03-12T10:32:31.119Z,16.79
2024-03-12T10:33:31.060Z,15.77
2024-03-12T10:34:31.007Z,15.18
2024-03-12T10:35:30.976Z,14.56
2024-03-12T10:36:31.015Z,14.65
2024-03-12T10:37:30.995Z,13.91
2024-03-12T10:38:30.933Z,13.15
2024-03-12T10:39:30.978Z,12.59
2024-03-12T10:40:31.017Z,12.40
2024-03-12T10:41:30.905Z,11.71
2024-03-12T10:42:30.918Z,11.19
2024-03-12T10:43:30.884Z,11.43
2024-03-12T10:44:30.882Z,11.20
2024-03-12T10:45:31.020Z,11.62
2024-03-12T10:46:30.976Z,11.91
2024-03-12T10:47:31.062Z,12.55
2024-03-12T10:48:31.066Z,12.80
2024-03-12T10:49:31.098Z,13.17
2024-03-12T10:50:31.140Z,13.56
2024-03-12T10:51:31.175Z,13.92
2024-03-12T10:52:31.157Z,14.61
2024-03-12T10:53:32.480Z,15.18
2024-03-12T10:54:34.416Z,15.45
2024-03-12T10:55:32.243Z,15.48
2024-03-12T10:56:31.200Z,15.69
2024-03-12T10:57:31.195Z,16.14
2024-03-12T10:58:31.164Z,17.33
2024-03-12T10:59:31.138Z,19.41
2024-03-12T11:00:31.164Z,20.56
2024-03-12T11:01:31.296Z,21.40
2024-03-12T11:02:31.107Z,21.69
2024-03-12T11:03:31.126Z,22.76
2024-03-12T11:04:31.070Z,23.34
2024-03-12T11:05:31.031Z,24.27
2024-03-12T11:06:31.136Z,24.76
2024-03-12T11:07:31.007Z,25.40
2024-03-12T11:08:31.006Z,25.85
2024-03-12T11:09:31.043Z,25.74
2024-03-12T11:10:31.007Z,25.24
2024-03-12T11:11:31.034Z,25.65
2024-03-12T11:12:30.985Z,26.29
2024-03-12T11:13:30.960Z,26.70
2024-03-12T11:14:30.988Z,27.07
2024-03-12T11:15:31.032Z,27.29
2024-03-12T11:16:31.039Z,27.98
2024-03-12T11:17:31.051Z,28.06
2024-03-12T11:18:31.096Z,28.08
2024-03-12T11:19:31.153Z,28.71
2024-03-12T11:20:31.118Z,28.49
2024-03-12T11:21:31.111Z,29.08
2024-03-12T11:22:31.152Z,29.03
2024-03-12T11:23:31.170Z,28.79
2024-03-12T11:24:31.594Z,28.80
2024-03-12T11:25:31.139Z,28.89
2024-03-12T11:27:31.175Z,30.05
2024-03-12T11:28:31.105Z,28.87
2024-03-12T11:29:31.083Z,29.28
2024-03-12T11:30:31.103Z,29.82
2024-03-12T11:31:31.078Z,31.19
2024-03-12T11:32:31.078Z,32.80
2024-03-12T11:33:31.058Z,32.82
2024-03-12T11:34:31.038Z,32.87
2024-03-12T11:35:31.003Z,33.25
2024-03-12T11:36:31.092Z,34.03
2024-03-12T11:37:30.994Z,35.07
2024-03-12T11:38:31.136Z,37.15
2024-03-12T11:39:31.171Z,36.55
2024-03-12T11:40:30.957Z,36.51
2024-03-12T11:41:30.990Z,35.87
2024-03-12T11:42:31.011Z,35.40
2024-03-12T11:43:30.924Z,35.04
2024-03-12T11:44:30.926Z,35.29
2024-03-12T11:45:30.901Z,34.68
2024-03-12T11:46:30.886Z,33.67
2024-03-12T11:47:30.952Z,32.91
2024-03-12T11:48:30.864Z,32.23
2024-03-12T11:49:30.832Z,32.21
2024-03-12T11:50:30.820Z,31.46
2024-03-12T11:51:30.868Z,31.68
2024-03-12T11:52:30.884Z,31.04
2024-03-12T11:53:31.034Z,30.97
2024-03-12T11:54:30.957Z,30.89
2024-03-12T11:55:30.969Z,30.24
2024-03-12T11:56:30.984Z,30.06
2024-03-12T11:57:31.368Z,29.89
2024-03-12T11:58:31.092Z,29.22
2024-03-12T11:59:31.102Z,29.07
2024-03-12T12:00:31.277Z,28.24
2024-03-12T12:01:31.288Z,28.28
2024-03-12T12:02:31.157Z,28.48
2024-03-12T12:03:31.214Z,27.26
2024-03-12T12:04:31.229Z,27.63
2024-03-12T12:05:31.237Z,26.99
2024-03-12T12:06:31.325Z,26.66
2024-03-12T12:07:31.371Z,26.77
2024-03-12T12:08:31.493Z,26.77
2024-03-12T12:09:31.387Z,26.63
2024-03-12T12:10:31.385Z,26.62
2024-03-12T12:11:31.421Z,26.53
2024-03-12T12:12:31.419Z,25.70
2024-03-12T12:13:31.424Z,25.73
2024-03-12T12:14:31.398Z,25.77
2024-03-12T12:15:31.412Z,25.96
2024-03-12T12:16:31.381Z,26.36
2024-03-12T12:17:31.380Z,27.11
2024-03-12T12:18:31.357Z,28.21
2024-03-12T12:19:35.547Z,27.73
2024-03-12T12:20:32.297Z,27.75
2024-03-12T12:21:31.348Z,27.91
2024-03-12T12:22:31.261Z,28.13
2024-03-12T12:23:31.258Z,28.76
2024-03-12T12:24:31.290Z,29.11
2024-03-12T12:25:31.274Z,29.64
2024-03-12T12:26:31.238Z,28.94
2024-03-12T12:27:31.234Z,29.39
2024-03-12T12:28:31.184Z,29.31
2024-03-12T12:29:31.169Z,29.31
2024-03-12T12:30:31.212Z,29.41
2024-03-12T12:31:31.132Z,29.46
2024-03-12T12:32:31.130Z,29.93
2024-03-12T12:33:31.184Z,29.78
2024-03-12T12:34:31.104Z,29.71
2024-03-12T12:35:31.074Z,29.53
2024-03-12T12:36:31.146Z,29.30
2024-03-12T12:37:31.052Z,29.27
2024-03-12T12:38:31.021Z,28.97
2024-03-12T12:39:40.277Z,29.34
2024-03-12T12:40:32.158Z,29.36
2024-03-12T12:41:30.994Z,29.44
2024-03-12T12:42:31.026Z,29.52
2024-03-12T12:43:30.978Z,29.84
2024-03-12T12:44:30.951Z,29.82
2024-03-12T12:45:31.001Z,29.87
2024-03-12T12:46:30.937Z,29.47
2024-03-12T12:47:31.000Z,30.00
2024-03-12T12:48:30.929Z,29.24
2024-03-12T12:49:30.906Z,28.87
2024-03-12T12:50:31.401Z,28.94
2024-03-12T12:51:30.912Z,28.71
2024-03-12T12:52:30.898Z,28.94
2024-03-12T12:53:30.848Z,28.21
2024-03-12T12:54:30.894Z,27.89
2024-03-12T12:55:30.931Z,27.84
2024-03-12T12:56:30.767Z,28.37
2024-03-12T12:57:30.862Z,27.43
2024-03-12T12:58:30.735Z,27.32
2024-03-12T12:59:30.724Z,27.01
2024-03-12T13:00:30.875Z,26.55
2024-03-12T13:01:30.761Z,26.56
2024-03-12T13:02:30.671Z,26.58
2024-03-12T13:03:30.740Z,26.62
2024-03-12T13:04:30.742Z,25.79
2024-03-12T13:05:30.641Z,25.67
2024-03-12T13:06:31.921Z,26.23
2024-03-12T13:07:30.590Z,25.83
2024-03-12T13:08:30.761Z,26.90
2024-03-12T13:09:30.669Z,26.51